Time;durP1;ratioP1;P1;durP2;ratioP2;P2;SDS_P1;SDS_P2;PMS_P1;PMS_P2;Temp;Humidity;BMP_temperature;BMP_pressure;BME280_temperature;BME280_humidity;BME280_pressure;Samples;Min_cycle;Max_cycle;Signal;HPM_P1;HPM_P2
2021/09/03 00:00:17;;;;;;;10.10;8.00;;;;;;;13.65;77.31;100174.25;5063406;28;20284;-81
2021/09/03 00:02:45;;;;;;;8.73;7.83;;;;;;;13.62;77.44;100173.91;5062498;28;20232;-83
2021/09/03 00:05:17;;;;;;;8.87;7.97;;;;;;;13.50;77.27;100165.75;5062297;28;20225;-81
2021/09/03 00:07:58;;;;;;;9.93;7.87;;;;;;;13.54;77.52;100171.47;5068020;28;20221;-84
2021/09/03 00:10:36;;;;;;;8.53;7.70;;;;;;;13.51;77.48;100155.78;5066300;28;20243;-81
2021/09/03 00:13:09;;;;;;;11.10;8.00;;;;;;;13.42;77.54;100155.28;5065572;28;20228;-85
2021/09/03 00:15:36;;;;;;;10.73;8.70;;;;;;;13.42;77.64;100166.06;5069417;28;20233;-83
2021/09/03 00:18:07;;;;;;;9.90;8.57;;;;;;;13.36;77.41;100155.34;5065094;28;20229;-80
2021/09/03 00:20:37;;;;;;;8.80;7.93;;;;;;;13.32;77.82;100160.38;5051064;28;20232;-81
2021/09/03 00:23:47;;;;;;;9.13;7.83;;;;;;;13.33;77.70;100159.31;5064986;28;20224;-81
2021/09/03 00:26:51;;;;;;;9.07;8.03;;;;;;;13.31;77.78;100158.72;5078798;22;20252;-82
2021/09/03 00:29:41;;;;;;;8.90;8.00;;;;;;;13.26;77.93;100157.75;5084550;23;20312;-82
2021/09/03 00:32:49;;;;;;;10.13;8.43;;;;;;;13.18;77.71;100150.78;5163076;23;20293;-81
2021/09/03 00:35:53;;;;;;;9.03;8.10;;;;;;;13.12;78.03;100152.50;5015255;28;20255;-82
2021/09/03 00:38:41;;;;;;;10.07;8.93;;;;;;;13.06;78.43;100150.69;5034350;28;20516;-81
2021/09/03 00:41:15;;;;;;;9.07;8.17;;;;;;;12.97;78.60;100143.13;5087038;22;20593;-81
2021/09/03 00:43:42;;;;;;;10.17;8.63;;;;;;;12.91;78.42;100144.84;5083161;22;20290;-81
2021/09/03 00:46:18;;;;;;;9.20;8.30;;;;;;;12.84;78.23;100137.88;5103186;22;20256;-82
2021/09/03 00:48:46;;;;;;;10.40;8.37;;;;;;;12.89;78.63;100148.78;5073457;28;20220;-82
2021/09/03 00:51:13;;;;;;;11.20;8.33;;;;;;;12.86;78.52;100149.25;5074917;28;20248;-81
2021/09/03 00:53:40;;;;;;;9.50;8.40;;;;;;;12.73;78.47;100131.38;5068209;23;20216;-81
2021/09/03 00:56:07;;;;;;;11.03;8.70;;;;;;;12.76;78.79;100133.59;5057055;28;20258;-81
2021/09/03 00:58:46;;;;;;;9.30;8.40;;;;;;;12.82;78.77;100146.19;5077901;28;20262;-82
2021/09/03 01:01:17;;;;;;;10.17;9.07;;;;;;;12.75;79.05;100138.16;5101458;22;20228;-81
2021/09/03 01:04:07;;;;;;;10.23;8.43;;;;;;;12.75;78.96;100132.78;5059913;28;20236;-81
2021/09/03 01:06:56;;;;;;;12.57;9.17;;;;;;;12.74;78.94;100125.75;5121531;22;20235;-81
2021/09/03 01:09:58;;;;;;;10.17;8.83;;;;;;;12.76;79.19;100137.13;5101308;28;20272;-81
2021/09/03 01:12:37;;;;;;;9.73;8.77;;;;;;;12.77;79.21;100137.94;5120211;22;20294;-81
2021/09/03 01:15:16;;;;;;;9.70;8.70;;;;;;;12.74;79.08;100125.75;5057606;28;20189;-82
2021/09/03 01:17:48;;;;;;;11.23;8.90;;;;;;;12.69;78.84;100127.50;5082143;22;20228;-81
2021/09/03 01:20:23;;;;;;;9.87;8.87;;;;;;;12.67;78.99;100126.88;5120435;22;20731;-82
2021/09/03 01:22:55;;;;;;;10.23;9.00;;;;;;;12.64;79.03;100127.31;5080332;23;20250;-81
2021/09/03 01:25:41;;;;;;;9.70;8.70;;;;;;;12.64;79.36;100125.47;5082621;22;20243;-82
2021/09/03 01:28:12;;;;;;;10.93;8.53;;;;;;;12.47;78.94;100105.53;5073211;22;20229;-81
2021/09/03 01:31:05;;;;;;;10.20;9.17;;;;;;;12.54;79.03;100110.88;5172131;22;20232;-81
2021/09/03 01:33:43;;;;;;;9.50;8.50;;;;;;;12.54;78.99;100111.69;5080281;23;20258;-80
2021/09/03 01:36:12;;;;;;;9.97;8.77;;;;;;;12.49;78.91;100108.84;5042201;28;20231;-81
2021/09/03 01:39:11;;;;;;;9.27;8.23;;;;;;;12.45;79.41;100106.81;5079374;23;20228;-81
2021/09/03 01:41:39;;;;;;;9.40;8.50;;;;;;;12.46;79.28;100113.84;5080819;23;20228;-80
2021/09/03 01:44:10;;;;;;;9.80;8.60;;;;;;;12.35;79.54;100105.44;5041762;28;20248;-81
2021/09/03 01:46:43;;;;;;;10.10;8.53;;;;;;;12.38;79.14;100114.09;5081426;23;20228;-81
2021/09/03 01:49:28;;;;;;;11.13;9.20;;;;;;;12.27;79.37;100094.94;5080274;23;20705;-81
2021/09/03 01:52:21;;;;;;;9.53;8.53;;;;;;;12.30;79.45;100101.78;5092810;28;20204;-81
2021/09/03 01:54:52;;;;;;;9.83;8.60;;;;;;;12.13;79.39;100088.03;5091244;28;21107;-81
2021/09/03 01:57:30;;;;;;;10.30;9.23;;;;;;;12.18;79.61;100098.97;5046427;23;20229;-81
2021/09/03 02:00:18;;;;;;;11.67;9.00;;;;;;;12.17;79.51;100093.81;5070310;28;20251;-81
2021/09/03 02:02:49;;;;;;;10.23;8.90;;;;;;;12.09;79.95;100091.38;5053284;28;20233;-81
2021/09/03 02:05:44;;;;;;;10.63;9.07;;;;;;;12.10;79.82;100093.03;5054270;28;20190;-81
2021/09/03 02:08:18;;;;;;;9.70;8.70;;;;;;;11.99;79.86;100080.31;5010993;28;20270;-81
2021/09/03 02:10:46;;;;;;;10.33;9.33;;;;;;;11.92;80.27;100075.00;5025570;23;20288;-81
2021/09/03 02:13:13;;;;;;;9.90;8.87;;;;;;;11.95;80.01;100087.16;5053857;28;20193;-81
2021/09/03 02:15:49;;;;;;;10.07;9.07;;;;;;;11.82;79.92;100077.31;5053543;28;20226;-81
2021/09/03 02:18:29;;;;;;;10.20;8.87;;;;;;;11.87;80.10;100083.69;5036619;28;20228;-81
2021/09/03 02:21:05;;;;;;;9.57;8.57;;;;;;;11.86;79.87;100082.03;5069168;28;20235;-81
2021/09/03 02:23:34;;;;;;;9.43;8.43;;;;;;;11.68;80.04;100065.81;5094557;23;20258;-81
2021/09/03 02:26:05;;;;;;;9.50;8.50;;;;;;;11.69;79.95;100083.59;5109451;28;20215;-81
2021/09/03 02:28:53;;;;;;;10.13;8.60;;;;;;;11.70;80.12;100085.22;5092957;28;21024;-82
2021/09/03 02:31:25;;;;;;;10.57;8.70;;;;;;;11.66;79.92;100086.72;5091595;28;20211;-81
2021/09/03 02:33:56;;;;;;;9.70;8.67;;;;;;;11.61;79.96;100088.38;5091569;28;20568;-81
2021/09/03 02:36:31;;;;;;;9.77;8.77;;;;;;;11.52;80.03;100078.94;5093387;28;20288;-81
2021/09/03 02:39:05;;;;;;;10.73;8.90;;;;;;;11.47;80.18;100071.53;5058989;28;20253;-81
2021/09/03 02:41:36;;;;;;;9.87;8.47;;;;;;;11.44;80.41;100067.41;5109889;28;20528;-82
2021/09/03 02:44:06;;;;;;;9.53;8.53;;;;;;;11.44;80.43;100077.31;5108684;28;20230;-81
2021/09/03 02:46:38;;;;;;;10.03;8.80;;;;;;;11.37;80.87;100072.00;5090956;28;20232;-82
2021/09/03 02:49:23;;;;;;;9.70;8.77;;;;;;;11.24;80.89;100055.97;5094551;28;20294;-81
2021/09/03 02:52:05;;;;;;;10.03;8.53;;;;;;;11.31;81.03;100078.19;5090878;28;20228;-81
2021/09/03 02:54:41;;;;;;;10.03;9.00;;;;;;;11.26;81.29;100078.03;5109159;28;20265;-82
2021/09/03 02:57:25;;;;;;;9.43;8.53;;;;;;;11.12;81.23;100068.38;5108433;28;20234;-81
2021/09/03 03:00:07;;;;;;;10.07;8.53;;;;;;;11.13;81.33;100074.56;5109553;28;20227;-82
2021/09/03 03:02:44;;;;;;;10.33;9.00;;;;;;;11.12;81.39;100065.69;5091551;28;20242;-81
2021/09/03 03:05:15;;;;;;;9.50;8.50;;;;;;;11.15;81.32;100081.34;5108978;23;20239;-81
2021/09/03 03:07:49;;;;;;;10.13;8.80;;;;;;;11.14;81.40;100082.41;5098767;23;20305;-81
2021/09/03 03:10:49;;;;;;;10.43;8.90;;;;;;;11.09;81.47;100084.06;5076562;28;20219;-81
2021/09/03 03:13:22;;;;;;;11.23;9.27;;;;;;;11.00;81.95;100073.59;5091220;28;20231;-82
2021/09/03 03:15:56;;;;;;;9.77;8.37;;;;;;;11.02;81.61;100082.22;5109226;28;20232;-81
2021/09/03 03:18:34;;;;;;;9.67;8.73;;;;;;;10.92;81.65;100068.44;5093706;28;20240;-82
2021/09/03 03:21:05;;;;;;;9.47;7.83;;;;;;;10.94;81.60;100085.16;5093501;28;20238;-82
2021/09/03 03:23:38;;;;;;;9.23;8.33;;;;;;;10.92;81.62;100084.53;5097635;22;20248;-81
2021/09/03 03:26:23;;;;;;;9.00;8.07;;;;;;;10.68;81.88;100054.94;5096024;22;20219;-81
2021/09/03 03:28:59;;;;;;;10.30;8.80;;;;;;;10.86;81.88;100072.00;5080934;22;20227;-81
2021/09/03 03:31:34;;;;;;;11.40;9.10;;;;;;;10.92;82.02;100076.47;5086315;23;20251;-81
2021/09/03 03:34:21;;;;;;;10.10;8.40;;;;;;;10.92;82.12;100070.28;5057122;28;20200;-81
2021/09/03 03:36:56;;;;;;;9.27;8.37;;;;;;;10.91;82.40;100069.50;5050434;28;20217;-81
2021/09/03 03:39:28;;;;;;;10.10;9.20;;;;;;;10.84;82.33;100066.00;5068351;28;20482;-81
2021/09/03 03:42:06;;;;;;;9.27;7.90;;;;;;;10.86;82.40;100068.47;5088842;23;20259;-81
2021/09/03 03:44:35;;;;;;;10.80;9.10;;;;;;;10.83;82.26;100063.53;5076209;23;20223;-81
2021/09/03 03:47:28;;;;;;;9.90;8.47;;;;;;;10.81;82.53;100061.06;5058546;28;20232;-81
2021/09/03 03:50:00;;;;;;;10.10;8.67;;;;;;;10.85;82.63;100058.78;5045374;28;20672;-81
2021/09/03 03:52:28;;;;;;;11.03;8.73;;;;;;;10.79;82.49;100055.09;5048312;28;20221;-81
2021/09/03 03:54:58;;;;;;;11.10;8.60;;;;;;;10.79;82.79;100052.41;5045951;28;20548;-81
2021/09/03 03:57:26;;;;;;;9.67;8.67;;;;;;;10.82;82.76;100060.03;5048369;28;20296;-81
2021/09/03 03:59:55;;;;;;;10.83;9.40;;;;;;;10.74;83.01;100048.69;5031522;28;20226;-81
2021/09/03 04:02:24;;;;;;;9.80;8.80;;;;;;;10.80;82.73;100064.78;5088751;23;20260;-81
2021/09/03 04:05:11;;;;;;;9.80;8.80;;;;;;;10.76;83.17;100063.56;5166744;23;20230;-80
2021/09/03 04:07:42;;;;;;;11.17;9.37;;;;;;;10.71;82.56;100044.59;5108801;28;20638;-81
2021/09/03 04:10:14;;;;;;;9.10;8.20;;;;;;;10.62;83.18;100031.63;5085525;23;20239;-82
2021/09/03 04:12:50;;;;;;;10.17;9.10;;;;;;;10.79;83.20;100044.38;5076681;28;20259;-80
2021/09/03 04:15:23;;;;;;;10.57;8.63;;;;;;;10.83;83.22;100052.81;5092209;28;20196;-82
2021/09/03 04:17:57;;;;;;;10.77;8.67;;;;;;;10.82;83.20;100054.69;5091274;28;20227;-82
2021/09/03 04:20:49;;;;;;;10.33;8.50;;;;;;;10.80;83.23;100042.50;5078135;28;20221;-81
2021/09/03 04:23:23;;;;;;;10.00;8.93;;;;;;;10.89;83.07;100057.31;5074678;28;20235;-81
2021/09/03 04:25:53;;;;;;;15.67;13.00;;;;;;;10.90;82.75;100048.25;5075038;28;20216;-81
2021/09/03 04:28:26;;;;;;;13.00;10.03;;;;;;;10.93;83.04;100045.13;5091779;28;20254;-81
2021/09/03 04:30:57;;;;;;;11.30;10.07;;;;;;;10.89;83.09;100035.88;5091873;28;20243;-81
2021/09/03 04:33:36;;;;;;;10.37;9.33;;;;;;;11.06;83.31;100050.44;5092306;28;20236;-81
2021/09/03 04:36:20;;;;;;;9.93;8.93;;;;;;;11.08;82.62;100039.53;5180063;23;20263;-81
2021/09/03 04:38:48;;;;;;;14.73;9.07;;;;;;;11.07;82.72;100033.34;5074144;28;20245;-82
2021/09/03 04:41:20;;;;;;;9.60;8.10;;;;;;;11.17;83.02;100040.91;5097866;23;20251;-81
2021/09/03 04:43:51;;;;;;;9.77;8.50;;;;;;;11.27;82.98;100039.44;5070132;28;20213;-82
2021/09/03 04:46:22;;;;;;;12.47;8.97;;;;;;;11.28;82.25;100034.91;5090855;28;20240;-81
2021/09/03 04:48:54;;;;;;;10.20;8.87;;;;;;;11.39;82.54;100040.38;5058927;23;20236;-80
2021/09/03 04:51:33;;;;;;;10.30;8.53;;;;;;;11.43;81.98;100038.91;5058287;23;20636;-81
2021/09/03 04:54:01;;;;;;;9.63;8.50;;;;;;;11.54;82.10;100047.31;5050210;23;20216;-80
2021/09/03 04:56:34;;;;;;;9.67;8.73;;;;;;;11.67;82.08;100049.94;5071206;23;20237;-81
2021/09/03 04:59:10;;;;;;;10.23;8.57;;;;;;;11.81;81.58;100051.50;5071218;28;20239;-81
2021/09/03 05:01:38;;;;;;;10.77;8.67;;;;;;;11.96;81.16;100053.88;5053816;28;20225;-81
2021/09/03 05:04:21;;;;;;;9.17;8.17;;;;;;;12.08;81.20;100055.69;5070245;28;20312;-81
2021/09/03 05:07:13;;;;;;;10.23;8.60;;;;;;;12.16;80.19;100055.41;5023736;28;20226;-81
2021/09/03 05:09:50;;;;;;;9.67;8.33;;;;;;;12.22;79.90;100045.63;5046489;23;20236;-81
2021/09/03 05:12:20;;;;;;;11.23;8.53;;;;;;;12.33;79.62;100039.53;5046875;23;20228;-81
2021/09/03 05:14:55;;;;;;;11.23;9.93;;;;;;;12.62;79.24;100054.13;5050909;28;20611;-81
2021/09/03 05:17:36;;;;;;;9.10;8.20;;;;;;;12.74;78.71;100046.97;5074722;23;20229;-81
2021/09/03 05:20:15;;;;;;;9.37;8.37;;;;;;;12.85;78.09;100056.16;5073289;28;20715;-82
2021/09/03 05:22:49;;;;;;;9.20;8.20;;;;;;;12.96;77.90;100050.03;5178850;23;20228;-80
2021/09/03 05:25:16;;;;;;;12.07;7.77;;;;;;;13.05;77.87;100040.63;5142389;23;20233;-81
2021/09/03 05:27:54;;;;;;;10.67;7.90;;;;;;;13.25;77.20;100035.03;5038658;28;20233;-81
2021/09/03 05:30:37;;;;;;;8.47;7.17;;;;;;;13.46;75.97;100043.41;5035944;28;20240;-82
2021/09/03 05:33:10;;;;;;;9.93;7.57;;;;;;;13.63;75.42;100043.59;5186015;22;20247;-82
2021/09/03 05:35:41;;;;;;;9.57;7.40;;;;;;;13.74;74.60;100034.72;5081813;22;20218;-81
2021/09/03 05:38:13;;;;;;;9.00;7.27;;;;;;;13.84;74.36;100034.19;5112411;22;20309;-81
2021/09/03 05:40:47;;;;;;;7.77;6.97;;;;;;;14.05;73.69;100030.91;5081893;28;20184;-81
2021/09/03 05:43:44;;;;;;;8.30;7.40;;;;;;;14.17;72.94;100022.88;5094961;22;20225;-82
2021/09/03 05:46:40;;;;;;;7.87;7.07;;;;;;;14.27;72.56;100017.72;5108596;22;20247;-82
2021/09/03 05:49:15;;;;;;;8.97;6.83;;;;;;;14.48;72.48;100025.22;5088945;22;20239;-80
2021/09/03 05:51:53;;;;;;;8.43;6.93;;;;;;;14.59;71.93;100023.59;5091234;28;20219;-80
2021/09/03 05:54:20;;;;;;;11.17;7.10;;;;;;;14.66;71.92;100017.00;5061847;28;23371;-84
2021/09/03 05:56:47;;;;;;;6.90;6.20;;;;;;;14.72;71.28;100013.38;5065356;28;20267;-84
2021/09/03 05:59:14;;;;;;;9.30;7.07;;;;;;;14.90;70.88;100020.50;5061547;28;20264;-88
2021/09/03 06:01:41;;;;;;;7.27;6.57;;;;;;;15.06;70.40;100010.84;5060047;28;20314;-86
2021/09/03 06:04:08;;;;;;;7.47;6.67;;;;;;;15.16;70.11;100014.56;5059319;28;20229;-87
2021/09/03 06:06:36;;;;;;;11.20;10.10;;;;;;;15.25;69.56;100015.00;5043352;28;20229;-85
2021/09/03 06:09:03;;;;;;;8.67;7.10;;;;;;;15.31;69.79;100005.91;5042707;28;20633;-85
2021/09/03 06:11:29;;;;;;;9.63;7.07;;;;;;;15.39;68.98;100006.38;5059964;28;20230;-88
2021/09/03 06:13:56;;;;;;;7.60;6.80;;;;;;;15.52;68.73;100013.38;5034317;28;20217;-81
2021/09/03 06:16:23;;;;;;;7.37;6.40;;;;;;;15.58;68.62;100007.03;5041309;28;20360;-85
2021/09/03 06:18:51;;;;;;;6.93;6.20;;;;;;;15.71;68.24;100000.47;5042906;28;20233;-86
2021/09/03 06:21:18;;;;;;;7.87;6.90;;;;;;;15.71;68.13;99987.78;5042337;28;20729;-89
2021/09/03 06:23:45;;;;;;;9.70;6.87;;;;;;;15.86;67.35;99996.13;5041500;28;20584;-87
2021/09/03 06:26:12;;;;;;;7.93;6.67;;;;;;;16.07;67.48;100015.38;5040264;28;20688;-88
2021/09/03 06:28:39;;;;;;;8.80;6.57;;;;;;;16.22;66.92;100010.22;5058918;28;20683;-90
2021/09/03 06:31:06;;;;;;;7.97;6.50;;;;;;;16.40;66.46;100014.53;5058369;28;20233;-90
2021/09/03 06:33:33;;;;;;;7.67;6.40;;;;;;;16.40;66.01;100006.44;5052572;28;20228;-88
2021/09/03 06:36:00;;;;;;;8.13;6.87;;;;;;;16.51;65.98;99997.41;5046167;28;20641;-90
2021/09/03 06:38:27;;;;;;;7.00;6.20;;;;;;;16.63;66.01;100006.25;5041304;28;20639;-86
2021/09/03 06:40:54;;;;;;;7.97;6.80;;;;;;;16.60;65.54;100004.06;5041703;28;20247;-85
2021/09/03 06:43:20;;;;;;;7.57;6.40;;;;;;;16.82;65.53;100013.00;5041685;28;20227;-86
2021/09/03 06:45:47;;;;;;;7.33;6.30;;;;;;;16.90;65.22;99999.03;5041795;28;20247;-86
2021/09/03 06:48:14;;;;;;;8.70;6.63;;;;;;;16.94;65.27;99994.75;5075155;28;20544;-87
2021/09/03 06:50:41;;;;;;;7.77;5.97;;;;;;;17.11;64.68;100011.75;5037701;28;20251;-85
2021/09/03 06:53:08;;;;;;;7.43;6.63;;;;;;;17.17;64.58;100008.00;5021652;28;20241;-82
2021/09/03 06:55:34;;;;;;;8.50;6.60;;;;;;;17.25;65.22;99998.66;5035304;28;20644;-84
2021/09/03 06:58:01;;;;;;;8.90;6.47;;;;;;;17.50;64.41;100012.44;5039154;28;20263;-88
2021/09/03 07:00:28;;;;;;;7.40;6.60;;;;;;;17.58;64.62;100009.31;5031754;28;20225;-86
2021/09/03 07:02:55;;;;;;;8.03;5.97;;;;;;;17.73;64.50;100016.75;5056602;28;20231;-86
2021/09/03 07:05:23;;;;;;;11.30;6.90;;;;;;;17.88;63.36;100013.38;5056387;28;20232;-85
2021/09/03 07:07:49;;;;;;;10.27;6.40;;;;;;;17.93;63.61;100002.56;5039394;28;20596;-87
2021/09/03 07:10:17;;;;;;;7.27;6.07;;;;;;;18.05;63.32;100008.66;5054330;28;20257;-88
2021/09/03 07:12:44;;;;;;;7.00;6.27;;;;;;;18.22;62.69;100012.03;5039614;28;20235;-86
2021/09/03 07:15:12;;;;;;;8.63;6.70;;;;;;;18.33;61.55;100004.78;5056558;28;20490;-85
2021/09/03 07:17:38;;;;;;;8.53;6.87;;;;;;;18.40;61.44;99999.94;5073759;28;20233;-83
2021/09/03 07:20:06;;;;;;;7.63;6.17;;;;;;;18.60;60.68;100008.22;5072885;28;20244;-83
2021/09/03 07:22:33;;;;;;;7.57;6.53;;;;;;;18.72;61.11;100002.59;5040516;28;20255;-87
2021/09/03 07:24:59;;;;;;;11.03;6.50;;;;;;;18.77;60.30;99983.59;5056801;28;20238;-87
2021/09/03 07:27:27;;;;;;;8.63;6.63;;;;;;;18.84;60.69;99992.34;5038167;28;20229;-86
2021/09/03 07:29:53;;;;;;;7.63;6.50;;;;;;;19.02;59.70;99986.44;5053652;28;20241;-84
2021/09/03 07:32:20;;;;;;;7.77;6.27;;;;;;;19.16;60.08;99989.47;5019902;28;22949;-83
2021/09/03 07:34:47;;;;;;;7.57;6.40;;;;;;;19.28;59.37;99984.59;5019879;28;20285;-85
2021/09/03 07:37:14;;;;;;;8.30;7.20;;;;;;;19.41;59.24;99986.03;5053458;28;20574;-85
2021/09/03 07:39:41;;;;;;;10.50;6.30;;;;;;;19.43;59.29;99978.41;5036472;28;20229;-85
2021/09/03 07:42:08;;;;;;;8.37;6.20;;;;;;;19.53;58.93;99983.88;5019634;28;20317;-81
2021/09/03 07:44:34;;;;;;;8.63;6.47;;;;;;;19.58;58.11;99971.13;5053207;28;20584;-86
2021/09/03 07:47:02;;;;;;;7.87;6.07;;;;;;;19.71;57.11;99978.75;5036579;28;20299;-84
2021/09/03 07:49:28;;;;;;;14.47;8.40;;;;;;;19.84;57.24;99979.28;5036167;28;20225;-84
2021/09/03 07:51:55;;;;;;;9.17;6.90;;;;;;;19.96;56.66;99972.50;5036552;28;20257;-86
2021/09/03 07:54:22;;;;;;;8.10;6.60;;;;;;;20.04;56.31;99971.94;5035822;28;20226;-81
2021/09/03 07:56:49;;;;;;;7.37;6.30;;;;;;;20.18;54.80;99975.75;5036490;28;20308;-86
2021/09/03 07:59:16;;;;;;;6.93;6.17;;;;;;;20.23;54.82;99985.78;5053292;28;20351;-81
2021/09/03 08:01:42;;;;;;;6.77;5.30;;;;;;;20.38;54.28;99969.47;5023378;28;20307;-81
2021/09/03 08:04:10;;;;;;;7.50;5.53;;;;;;;20.47;53.81;99961.56;5056408;28;20249;-85
2021/09/03 08:06:36;;;;;;;6.23;5.50;;;;;;;20.55;53.91;99971.88;5056186;28;20312;-81
2021/09/03 08:09:03;;;;;;;7.33;6.27;;;;;;;20.20;54.77;99965.38;5040151;28;20354;-84
2021/09/03 08:11:30;;;;;;;7.13;6.07;;;;;;;20.46;55.34;99963.47;5056580;28;20275;-81
2021/09/03 08:13:57;;;;;;;8.27;6.00;;;;;;;20.56;54.50;99958.00;5040005;28;20323;-84
2021/09/03 08:16:24;;;;;;;6.03;5.43;;;;;;;20.56;55.03;99974.34;5055971;28;20315;-82
2021/09/03 08:18:51;;;;;;;9.47;6.20;;;;;;;20.57;54.44;99970.53;5056058;28;20221;-80
2021/09/03 08:21:17;;;;;;;7.90;5.80;;;;;;;20.78;54.14;99971.25;5039734;28;20702;-84
2021/09/03 08:23:44;;;;;;;7.87;5.30;;;;;;;20.91;53.53;99972.56;5056132;28;20225;-84
2021/09/03 08:26:11;;;;;;;6.53;5.00;;;;;;;21.03;50.60;99970.34;5039340;28;20594;-81
2021/09/03 08:28:38;;;;;;;4.87;4.37;;;;;;;21.14;50.16;99966.47;5056391;28;20375;-81
2021/09/03 08:31:05;;;;;;;4.93;4.43;;;;;;;21.35;49.39;99967.19;5040315;28;20236;-81
2021/09/03 08:33:32;;;;;;;6.63;4.60;;;;;;;21.29;49.84;99958.22;5056844;28;20229;-83
2021/09/03 08:35:59;;;;;;;6.17;5.20;;;;;;;21.45;49.45;99951.59;5056273;28;20252;-84
2021/09/03 08:38:25;;;;;;;7.43;5.30;;;;;;;21.35;49.22;99959.00;5056497;28;20230;-85
2021/09/03 08:40:56;;;;;;;5.80;4.80;;;;;;;21.55;48.72;99953.44;5074238;28;20312;-80
2021/09/03 08:43:23;;;;;;;6.70;5.10;;;;;;;21.53;49.11;99947.44;5056813;28;20638;-83
2021/09/03 08:45:50;;;;;;;6.47;4.73;;;;;;;21.29;50.05;99965.59;5039848;28;20284;-84
2021/09/03 08:48:19;;;;;;;5.40;4.83;;;;;;;21.51;49.52;99955.06;5038833;28;20230;-84
2021/09/03 08:50:51;;;;;;;5.50;5.00;;;;;;;21.70;49.54;99944.31;5048833;28;20252;-83
2021/09/03 08:53:20;;;;;;;4.80;4.23;;;;;;;21.90;47.53;99947.69;5040084;28;20296;-84
2021/09/03 08:55:48;;;;;;;5.60;5.00;;;;;;;22.13;46.44;99956.22;5058589;28;20226;-85
2021/09/03 08:58:15;;;;;;;4.63;4.17;;;;;;;22.18;46.23;99946.09;5059739;28;20234;-83
2021/09/03 09:00:44;;;;;;;5.03;4.27;;;;;;;22.15;46.58;99959.50;5059956;28;20243;-85
2021/09/03 09:03:14;;;;;;;5.20;4.40;;;;;;;22.43;46.62;99966.84;5043828;28;20541;-84
2021/09/03 09:05:51;;;;;;;5.97;4.40;;;;;;;22.48;45.22;99960.53;5026694;28;20232;-85
2021/09/03 09:08:19;;;;;;;5.20;4.70;;;;;;;22.70;44.57;99958.13;5042634;28;20650;-85
2021/09/03 09:10:48;;;;;;;4.43;4.03;;;;;;;22.79;44.47;99951.72;5027055;28;20243;-82
2021/09/03 09:13:35;;;;;;;5.20;4.17;;;;;;;22.89;43.52;99944.50;5042125;28;20238;-83
2021/09/03 09:16:06;;;;;;;4.80;4.40;;;;;;;22.97;42.84;99941.09;5059636;28;20261;-83
2021/09/03 09:18:33;;;;;;;4.87;4.43;;;;;;;23.02;42.81;99944.59;5077605;28;20261;-85
2021/09/03 09:21:11;;;;;;;6.17;5.53;;;;;;;23.02;42.82;99941.84;5077274;28;20669;-83
2021/09/03 09:23:42;;;;;;;6.20;4.60;;;;;;;23.19;42.59;99953.09;5060069;28;20230;-83
2021/09/03 09:26:09;;;;;;;5.40;4.90;;;;;;;23.17;43.52;99938.09;5042349;28;20320;-83
2021/09/03 09:28:36;;;;;;;5.37;4.87;;;;;;;23.26;44.14;99925.41;5026672;28;20278;-84
2021/09/03 09:31:02;;;;;;;5.03;4.30;;;;;;;23.34;44.30;99938.38;5042387;28;20252;-84
2021/09/03 09:33:29;;;;;;;6.67;4.67;;;;;;;23.31;42.81;99936.25;5059341;28;20310;-84
2021/09/03 09:35:58;;;;;;;5.73;5.13;;;;;;;22.97;44.37;99914.59;5057673;28;20283;-85
2021/09/03 09:38:31;;;;;;;6.90;4.57;;;;;;;23.08;44.88;99918.00;5056950;28;21338;-83
2021/09/03 09:41:03;;;;;;;5.80;4.70;;;;;;;23.27;44.72;99918.81;5042907;28;20260;-83
2021/09/03 09:43:40;;;;;;;5.43;4.43;;;;;;;23.22;44.40;99911.50;5042875;28;20642;-84
2021/09/03 09:46:07;;;;;;;4.50;4.10;;;;;;;23.22;43.75;99916.97;5075367;28;20319;-84
2021/09/03 09:48:52;;;;;;;4.80;4.40;;;;;;;23.36;42.71;99914.31;5074082;28;20233;-83
2021/09/03 09:51:32;;;;;;;5.47;4.47;;;;;;;23.49;43.17;99912.78;5045840;28;20236;-84
2021/09/03 09:54:14;;;;;;;4.90;4.27;;;;;;;23.69;41.76;99913.25;5059185;28;20234;-83
2021/09/03 09:56:43;;;;;;;5.77;4.30;;;;;;;23.80;41.70;99907.59;5058880;28;20586;-83
2021/09/03 09:59:14;;;;;;;4.77;3.90;;;;;;;23.94;41.42;99906.53;5059055;28;20251;-83
2021/09/03 10:01:42;;;;;;;5.22;4.68;;;;;;;24.09;41.22;99913.66;5036554;28;20217;-85
2021/09/03 10:04:18;;;;;;;6.07;4.53;;;;;;;24.26;40.96;99913.94;5022100;28;20229;-84
2021/09/03 10:06:47;;;;;;;4.50;4.10;;;;;;;24.38;40.67;99903.28;5039010;28;20260;-84
2021/09/03 10:09:16;;;;;;;4.97;3.83;;;;;;;24.42;38.79;99898.00;5055434;28;20655;-85
2021/09/03 10:11:44;;;;;;;4.55;4.15;;;;;;;24.55;39.80;99897.16;5039061;28;20621;-83
2021/09/03 10:14:15;;;;;;;6.47;4.05;;;;;;;24.60;39.24;99896.25;5021890;28;20283;-85
2021/09/03 10:16:47;;;;;;;5.63;4.07;;;;;;;24.49;39.85;99882.78;5022343;28;20229;-82
2021/09/03 10:19:30;;;;;;;4.57;4.18;;;;;;;24.32;39.48;99885.31;5037457;28;20272;-83
2021/09/03 10:22:01;;;;;;;4.68;4.25;;;;;;;24.12;39.83;99885.69;5025738;28;20243;-83
2021/09/03 10:24:29;;;;;;;4.65;3.95;;;;;;;24.26;39.90;99852.88;5039614;28;20595;-84
2021/09/03 10:26:57;;;;;;;4.75;4.10;;;;;;;24.36;40.04;99867.16;5057995;28;20244;-85
2021/09/03 10:29:27;;;;;;;4.68;4.28;;;;;;;24.64;39.25;99869.88;5045352;28;20307;-85
2021/09/03 10:32:03;;;;;;;4.22;3.90;;;;;;;24.80;38.89;99868.44;5021037;28;20252;-83
2021/09/03 10:34:45;;;;;;;5.00;4.07;;;;;;;24.83;38.62;99874.09;5025658;28;20278;-84
2021/09/03 10:37:17;;;;;;;5.90;4.00;;;;;;;25.01;37.44;99863.34;5041261;28;20279;-82
2021/09/03 10:40:04;;;;;;;4.10;3.80;;;;;;;25.15;36.38;99866.88;5042013;28;20303;-84
2021/09/03 10:42:34;;;;;;;4.05;3.65;;;;;;;25.14;35.38;99863.31;5037355;28;20279;-84
2021/09/03 10:45:01;;;;;;;3.97;3.58;;;;;;;25.26;36.33;99857.25;5055058;28;20230;-84
2021/09/03 10:47:32;;;;;;;3.63;3.33;;;;;;;25.25;36.51;99847.41;5054845;28;20229;-83
2021/09/03 10:50:08;;;;;;;3.72;3.42;;;;;;;25.11;36.60;99843.91;5036948;28;20341;-84
2021/09/03 10:52:35;;;;;;;3.78;3.47;;;;;;;25.22;36.65;99843.38;5057251;28;20260;-84
2021/09/03 10:55:02;;;;;;;4.18;3.55;;;;;;;25.32;36.80;99847.78;5054546;28;20244;-85
2021/09/03 10:57:29;;;;;;;4.10;3.70;;;;;;;25.10;35.79;99845.03;5031310;28;20312;-83
2021/09/03 11:00:16;;;;;;;4.25;3.85;;;;;;;25.28;35.37;99850.34;5020690;28;20310;-83
2021/09/03 11:02:42;;;;;;;3.88;3.50;;;;;;;25.53;35.31;99837.09;5025440;28;20668;-87
2021/09/03 11:05:11;;;;;;;5.32;4.15;;;;;;;25.57;35.28;99846.38;5052944;28;20225;-84
2021/09/03 11:07:42;;;;;;;4.95;4.00;;;;;;;25.53;35.97;99837.91;5039986;28;20229;-85
2021/09/03 11:10:19;;;;;;;6.18;4.20;;;;;;;25.59;36.19;99839.44;5035471;28;20221;-83
2021/09/03 11:12:53;;;;;;;4.95;3.83;;;;;;;25.76;37.21;99835.97;5053416;28;20315;-84
2021/09/03 11:15:20;;;;;;;3.90;3.60;;;;;;;25.54;36.28;99834.09;5053541;28;20245;-84
2021/09/03 11:17:47;;;;;;;3.67;3.33;;;;;;;25.69;36.82;99830.16;5025774;28;20551;-85
2021/09/03 11:20:16;;;;;;;3.78;3.38;;;;;;;25.97;35.00;99834.31;5049229;28;20238;-84
2021/09/03 11:22:43;;;;;;;3.83;3.42;;;;;;;26.17;34.27;99832.97;5017334;28;20239;-85
2021/09/03 11:25:10;;;;;;;4.00;3.60;;;;;;;26.27;33.76;99818.94;5036409;28;20314;-84
2021/09/03 11:27:38;;;;;;;5.18;4.30;;;;;;;26.21;34.86;99829.28;5053300;28;20232;-84
2021/09/03 11:30:09;;;;;;;5.05;4.00;;;;;;;26.20;34.65;99811.16;5052707;28;20234;-84
2021/09/03 11:32:38;;;;;;;4.10;3.70;;;;;;;26.12;35.50;99820.19;5036863;28;20251;-85
2021/09/03 11:35:06;;;;;;;4.38;3.60;;;;;;;25.98;35.70;99830.47;5053210;28;20240;-83
2021/09/03 11:37:38;;;;;;;8.00;4.32;;;;;;;26.12;34.48;99825.69;5052959;28;20510;-83
2021/09/03 11:40:07;;;;;;;3.92;3.45;;;;;;;26.43;34.38;99831.13;5036181;28;20241;-85
2021/09/03 11:42:52;;;;;;;4.50;4.10;;;;;;;26.54;33.97;99815.16;5053291;28;20223;-84
2021/09/03 11:45:21;;;;;;;4.05;3.33;;;;;;;26.57;34.53;99820.00;5055867;28;20244;-85
2021/09/03 11:48:00;;;;;;;3.60;3.30;;;;;;;26.62;34.03;99811.59;5038077;28;20317;-83
2021/09/03 11:50:35;;;;;;;3.45;3.15;;;;;;;26.71;32.52;99813.22;5016758;28;20293;-84
2021/09/03 11:53:06;;;;;;;3.50;3.05;;;;;;;26.63;32.07;99811.28;5016846;28;20230;-84